Arapiraca, Brazil
Current Conditions -  °F | °C
As of 7:00 PM on Thursday 18 Dec 2014 (Local Time) from SBVT Reporting Station
Clear Clear  
Wind Chill: 79°   Ceiling: Unl
Heat Index: 81°   Visibility: 6mi
Dew Point: 68°   Wind: 18mph
Humidity: 69%   Direction: 50°NE
Pressure: 29.83"   Gusts: 30mph
Location:  19.82°S, 40.27°W
Report Text: SBVT 182100Z 05016G26KT CAVOK 26/20 Q1010
Loading
Personal Weather Stations






























Interactive Weather Map New forecast layout! Learn more

10-Day Weather Forecast

Advertisements
Track Severe Weather on mobile